sensor_id;sensor_type;location;lat;lon;timestamp;P1;durP1;ratioP1;P2;durP2;ratioP2
29338;SDS011;16335;52.334;13.628;2022-07-29T00:00:37;3.65;;;2.17;;
29338;SDS011;16335;52.334;13.628;2022-07-29T00:03:03;6.05;;;2.67;;
29338;SDS011;16335;52.334;13.628;2022-07-29T00:05:28;3.83;;;2.45;;
29338;SDS011;16335;52.334;13.628;2022-07-29T00:07:54;8.10;;;3.25;;
29338;SDS011;16335;52.334;13.628;2022-07-29T00:10:20;5.75;;;2.90;;
29338;SDS011;16335;52.334;13.628;2022-07-29T00:12:46;6.20;;;2.33;;
29338;SDS011;16335;52.334;13.628;2022-07-29T00:15:12;5.88;;;3.22;;
29338;SDS011;16335;52.334;13.628;2022-07-29T00:17:38;8.93;;;3.50;;
29338;SDS011;16335;52.334;13.628;2022-07-29T00:20:04;5.95;;;3.20;;
29338;SDS011;16335;52.334;13.628;2022-07-29T00:22:30;7.20;;;3.30;;
29338;SDS011;16335;52.334;13.628;2022-07-29T00:24:56;7.30;;;3.10;;
29338;SDS011;16335;52.334;13.628;2022-07-29T00:27:22;4.85;;;2.65;;
29338;SDS011;16335;52.334;13.628;2022-07-29T00:29:48;5.57;;;3.42;;
29338;SDS011;16335;52.334;13.628;2022-07-29T00:32:13;8.38;;;3.60;;
29338;SDS011;16335;52.334;13.628;2022-07-29T00:34:39;4.97;;;3.38;;
29338;SDS011;16335;52.334;13.628;2022-07-29T00:37:24;5.90;;;3.35;;
29338;SDS011;16335;52.334;13.628;2022-07-29T00:39:50;8.95;;;3.67;;
29338;SDS011;16335;52.334;13.628;2022-07-29T00:42:16;7.40;;;3.25;;
29338;SDS011;16335;52.334;13.628;2022-07-29T00:44:42;7.20;;;3.58;;
29338;SDS011;16335;52.334;13.628;2022-07-29T00:47:09;9.90;;;3.45;;
29338;SDS011;16335;52.334;13.628;2022-07-29T00:49:35;7.55;;;3.72;;
29338;SDS011;16335;52.334;13.628;2022-07-29T00:52:02;5.95;;;3.35;;
29338;SDS011;16335;52.334;13.628;2022-07-29T00:54:28;5.07;;;3.20;;
29338;SDS011;16335;52.334;13.628;2022-07-29T00:56:56;5.97;;;3.25;;
29338;SDS011;16335;52.334;13.628;2022-07-29T00:59:23;6.38;;;3.55;;
29338;SDS011;16335;52.334;13.628;2022-07-29T01:01:49;8.13;;;4.18;;
29338;SDS011;16335;52.334;13.628;2022-07-29T01:04:15;4.38;;;3.38;;
29338;SDS011;16335;52.334;13.628;2022-07-29T01:06:41;5.72;;;3.33;;
29338;SDS011;16335;52.334;13.628;2022-07-29T01:09:07;5.97;;;3.85;;
29338;SDS011;16335;52.334;13.628;2022-07-29T01:11:34;7.55;;;3.72;;
29338;SDS011;16335;52.334;13.628;2022-07-29T01:14:01;7.50;;;3.80;;
29338;SDS011;16335;52.334;13.628;2022-07-29T01:16:35;7.97;;;3.45;;
29338;SDS011;16335;52.334;13.628;2022-07-29T01:19:12;6.65;;;4.22;;
29338;SDS011;16335;52.334;13.628;2022-07-29T01:21:59;6.80;;;4.18;;
29338;SDS011;16335;52.334;13.628;2022-07-29T01:28:13;6.97;;;3.65;;
29338;SDS011;16335;52.334;13.628;2022-07-29T01:30:57;12.80;;;3.70;;
29338;SDS011;16335;52.334;13.628;2022-07-29T01:33:24;5.65;;;3.33;;
29338;SDS011;16335;52.334;13.628;2022-07-29T01:36:25;8.98;;;3.58;;
29338;SDS011;16335;52.334;13.628;2022-07-29T01:38:58;5.60;;;3.97;;
29338;SDS011;16335;52.334;13.628;2022-07-29T01:41:28;7.18;;;4.15;;
29338;SDS011;16335;52.334;13.628;2022-07-29T01:43:57;10.00;;;3.88;;
29338;SDS011;16335;52.334;13.628;2022-07-29T01:46:27;5.85;;;3.63;;
29338;SDS011;16335;52.334;13.628;2022-07-29T01:49:00;9.95;;;4.43;;
29338;SDS011;16335;52.334;13.628;2022-07-29T01:51:31;5.45;;;3.55;;
29338;SDS011;16335;52.334;13.628;2022-07-29T01:54:02;7.15;;;3.85;;
29338;SDS011;16335;52.334;13.628;2022-07-29T01:56:30;6.38;;;3.60;;
29338;SDS011;16335;52.334;13.628;2022-07-29T01:58:58;8.50;;;3.83;;
29338;SDS011;16335;52.334;13.628;2022-07-29T02:01:24;5.05;;;4.03;;
29338;SDS011;16335;52.334;13.628;2022-07-29T02:03:52;4.90;;;3.45;;
29338;SDS011;16335;52.334;13.628;2022-07-29T02:06:19;8.93;;;4.00;;
29338;SDS011;16335;52.334;13.628;2022-07-29T02:08:46;7.07;;;3.50;;
29338;SDS011;16335;52.334;13.628;2022-07-29T02:11:13;7.45;;;4.00;;
29338;SDS011;16335;52.334;13.628;2022-07-29T02:13:38;5.90;;;4.20;;
29338;SDS011;16335;52.334;13.628;2022-07-29T02:16:05;7.82;;;3.90;;
29338;SDS011;16335;52.334;13.628;2022-07-29T02:18:33;9.60;;;4.97;;
29338;SDS011;16335;52.334;13.628;2022-07-29T02:21:01;7.35;;;3.60;;
29338;SDS011;16335;52.334;13.628;2022-07-29T02:23:28;8.75;;;3.42;;
29338;SDS011;16335;52.334;13.628;2022-07-29T02:25:56;10.82;;;4.50;;
29338;SDS011;16335;52.334;13.628;2022-07-29T02:28:24;8.43;;;3.70;;
29338;SDS011;16335;52.334;13.628;2022-07-29T02:30:52;8.70;;;3.95;;
29338;SDS011;16335;52.334;13.628;2022-07-29T02:33:19;8.43;;;4.00;;
29338;SDS011;16335;52.334;13.628;2022-07-29T02:35:46;8.20;;;3.92;;
29338;SDS011;16335;52.334;13.628;2022-07-29T02:38:13;9.32;;;4.28;;
29338;SDS011;16335;52.334;13.628;2022-07-29T02:41:00;8.90;;;4.03;;
29338;SDS011;16335;52.334;13.628;2022-07-29T02:43:27;8.75;;;4.63;;
29338;SDS011;16335;52.334;13.628;2022-07-29T02:45:53;7.18;;;3.92;;
29338;SDS011;16335;52.334;13.628;2022-07-29T02:48:22;7.70;;;3.97;;
29338;SDS011;16335;52.334;13.628;2022-07-29T02:51:12;5.03;;;3.70;;
29338;SDS011;16335;52.334;13.628;2022-07-29T02:53:47;7.68;;;4.85;;
29338;SDS011;16335;52.334;13.628;2022-07-29T02:56:14;7.35;;;4.10;;
29338;SDS011;16335;52.334;13.628;2022-07-29T02:58:45;6.18;;;3.72;;
29338;SDS011;16335;52.334;13.628;2022-07-29T03:01:19;6.65;;;4.32;;
29338;SDS011;16335;52.334;13.628;2022-07-29T03:03:48;6.55;;;4.07;;
29338;SDS011;16335;52.334;13.628;2022-07-29T03:06:15;7.45;;;4.45;;
29338;SDS011;16335;52.334;13.628;2022-07-29T03:08:43;7.63;;;4.22;;
29338;SDS011;16335;52.334;13.628;2022-07-29T03:11:10;7.10;;;4.15;;
29338;SDS011;16335;52.334;13.628;2022-07-29T03:13:38;6.90;;;4.43;;
29338;SDS011;16335;52.334;13.628;2022-07-29T03:16:05;7.47;;;4.40;;
29338;SDS011;16335;52.334;13.628;2022-07-29T03:18:34;6.25;;;3.80;;
29338;SDS011;16335;52.334;13.628;2022-07-29T03:21:01;4.32;;;3.90;;
29338;SDS011;16335;52.334;13.628;2022-07-29T03:23:28;5.32;;;3.83;;
29338;SDS011;16335;52.334;13.628;2022-07-29T03:25:54;8.15;;;4.88;;
29338;SDS011;16335;52.334;13.628;2022-07-29T03:28:20;7.68;;;3.95;;
29338;SDS011;16335;52.334;13.628;2022-07-29T03:30:46;5.78;;;3.67;;
29338;SDS011;16335;52.334;13.628;2022-07-29T03:33:12;8.15;;;3.67;;
29338;SDS011;16335;52.334;13.628;2022-07-29T03:35:39;5.50;;;3.80;;
29338;SDS011;16335;52.334;13.628;2022-07-29T03:38:06;8.48;;;3.78;;
29338;SDS011;16335;52.334;13.628;2022-07-29T03:40:40;6.90;;;4.18;;
29338;SDS011;16335;52.334;13.628;2022-07-29T03:43:10;9.50;;;4.32;;
29338;SDS011;16335;52.334;13.628;2022-07-29T03:45:36;6.22;;;4.38;;
29338;SDS011;16335;52.334;13.628;2022-07-29T03:48:05;9.10;;;4.40;;
29338;SDS011;16335;52.334;13.628;2022-07-29T03:50:34;6.68;;;3.75;;
29338;SDS011;16335;52.334;13.628;2022-07-29T03:53:00;8.35;;;4.05;;
29338;SDS011;16335;52.334;13.628;2022-07-29T03:55:28;6.60;;;4.25;;
29338;SDS011;16335;52.334;13.628;2022-07-29T03:57:54;6.10;;;4.55;;
29338;SDS011;16335;52.334;13.628;2022-07-29T04:00:21;6.47;;;4.25;;
29338;SDS011;16335;52.334;13.628;2022-07-29T04:02:47;6.43;;;3.63;;
29338;SDS011;16335;52.334;13.628;2022-07-29T04:05:13;7.07;;;4.03;;
29338;SDS011;16335;52.334;13.628;2022-07-29T04:07:42;7.70;;;4.30;;
29338;SDS011;16335;52.334;13.628;2022-07-29T04:10:12;4.95;;;3.70;;
29338;SDS011;16335;52.334;13.628;2022-07-29T04:12:40;8.98;;;4.43;;
29338;SDS011;16335;52.334;13.628;2022-07-29T04:15:06;8.05;;;4.63;;
29338;SDS011;16335;52.334;13.628;2022-07-29T04:17:32;6.53;;;4.03;;
29338;SDS011;16335;52.334;13.628;2022-07-29T04:19:59;5.95;;;4.05;;
29338;SDS011;16335;52.334;13.628;2022-07-29T04:22:24;6.45;;;4.32;;
29338;SDS011;16335;52.334;13.628;2022-07-29T04:24:50;8.18;;;4.43;;
29338;SDS011;16335;52.334;13.628;2022-07-29T04:27:16;6.43;;;3.88;;
29338;SDS011;16335;52.334;13.628;2022-07-29T04:29:43;6.78;;;4.25;;
29338;SDS011;16335;52.334;13.628;2022-07-29T04:32:09;10.20;;;3.80;;
29338;SDS011;16335;52.334;13.628;2022-07-29T04:34:35;4.80;;;3.67;;
29338;SDS011;16335;52.334;13.628;2022-07-29T04:37:01;6.53;;;3.72;;
29338;SDS011;16335;52.334;13.628;2022-07-29T04:39:27;7.32;;;3.90;;
29338;SDS011;16335;52.334;13.628;2022-07-29T04:41:52;5.95;;;3.55;;
29338;SDS011;16335;52.334;13.628;2022-07-29T04:44:18;8.05;;;3.92;;
29338;SDS011;16335;52.334;13.628;2022-07-29T04:46:44;5.57;;;3.63;;
29338;SDS011;16335;52.334;13.628;2022-07-29T04:49:10;5.20;;;3.60;;
29338;SDS011;16335;52.334;13.628;2022-07-29T04:51:36;8.45;;;4.20;;
29338;SDS011;16335;52.334;13.628;2022-07-29T04:54:02;5.20;;;3.70;;
29338;SDS011;16335;52.334;13.628;2022-07-29T04:56:28;8.25;;;3.60;;
29338;SDS011;16335;52.334;13.628;2022-07-29T04:58:54;7.10;;;3.50;;
29338;SDS011;16335;52.334;13.628;2022-07-29T05:01:20;9.95;;;3.90;;
29338;SDS011;16335;52.334;13.628;2022-07-29T05:03:46;8.52;;;3.20;;
29338;SDS011;16335;52.334;13.628;2022-07-29T05:06:12;7.70;;;3.15;;
29338;SDS011;16335;52.334;13.628;2022-07-29T05:08:38;5.78;;;3.63;;
29338;SDS011;16335;52.334;13.628;2022-07-29T05:11:04;9.18;;;4.13;;
29338;SDS011;16335;52.334;13.628;2022-07-29T05:13:30;5.53;;;3.70;;
29338;SDS011;16335;52.334;13.628;2022-07-29T05:15:56;6.05;;;3.85;;
29338;SDS011;16335;52.334;13.628;2022-07-29T05:18:23;7.75;;;4.50;;
29338;SDS011;16335;52.334;13.628;2022-07-29T05:20:50;8.13;;;3.92;;
29338;SDS011;16335;52.334;13.628;2022-07-29T05:23:16;7.03;;;3.35;;
29338;SDS011;16335;52.334;13.628;2022-07-29T05:25:43;6.55;;;3.90;;
29338;SDS011;16335;52.334;13.628;2022-07-29T05:28:09;5.78;;;3.50;;
29338;SDS011;16335;52.334;13.628;2022-07-29T05:30:35;11.18;;;4.18;;
29338;SDS011;16335;52.334;13.628;2022-07-29T05:33:02;7.82;;;3.92;;
29338;SDS011;16335;52.334;13.628;2022-07-29T05:35:28;15.50;;;5.00;;
29338;SDS011;16335;52.334;13.628;2022-07-29T05:37:54;7.30;;;3.55;;
29338;SDS011;16335;52.334;13.628;2022-07-29T05:40:20;7.18;;;3.97;;
29338;SDS011;16335;52.334;13.628;2022-07-29T05:42:46;4.72;;;3.45;;
29338;SDS011;16335;52.334;13.628;2022-07-29T05:45:12;13.85;;;4.70;;
29338;SDS011;16335;52.334;13.628;2022-07-29T05:47:37;8.38;;;3.78;;
29338;SDS011;16335;52.334;13.628;2022-07-29T05:50:05;11.85;;;4.95;;
29338;SDS011;16335;52.334;13.628;2022-07-29T05:52:32;4.50;;;3.50;;
29338;SDS011;16335;52.334;13.628;2022-07-29T05:54:58;5.13;;;3.30;;
29338;SDS011;16335;52.334;13.628;2022-07-29T05:57:27;5.80;;;3.40;;
29338;SDS011;16335;52.334;13.628;2022-07-29T05:59:53;5.50;;;3.50;;
29338;SDS011;16335;52.334;13.628;2022-07-29T06:02:19;8.30;;;3.60;;
29338;SDS011;16335;52.334;13.628;2022-07-29T06:04:44;7.32;;;3.15;;
29338;SDS011;16335;52.334;13.628;2022-07-29T06:07:10;5.35;;;3.60;;
29338;SDS011;16335;52.334;13.628;2022-07-29T06:09:38;5.85;;;3.65;;
29338;SDS011;16335;52.334;13.628;2022-07-29T06:12:05;6.85;;;3.42;;
29338;SDS011;16335;52.334;13.628;2022-07-29T06:14:31;7.57;;;3.67;;
29338;SDS011;16335;52.334;13.628;2022-07-29T06:16:57;9.77;;;3.30;;
29338;SDS011;16335;52.334;13.628;2022-07-29T06:19:25;6.45;;;3.50;;
29338;SDS011;16335;52.334;13.628;2022-07-29T06:21:55;8.70;;;3.40;;
29338;SDS011;16335;52.334;13.628;2022-07-29T06:24:23;7.00;;;3.30;;
29338;SDS011;16335;52.334;13.628;2022-07-29T06:26:49;8.93;;;3.20;;
29338;SDS011;16335;52.334;13.628;2022-07-29T06:29:15;7.55;;;3.30;;
29338;SDS011;16335;52.334;13.628;2022-07-29T06:31:42;7.28;;;3.03;;
29338;SDS011;16335;52.334;13.628;2022-07-29T06:34:09;6.60;;;3.08;;
29338;SDS011;16335;52.334;13.628;2022-07-29T06:36:35;6.65;;;3.13;;
29338;SDS011;16335;52.334;13.628;2022-07-29T06:39:08;5.32;;;3.03;;
29338;SDS011;16335;52.334;13.628;2022-07-29T06:41:34;6.18;;;3.08;;
29338;SDS011;16335;52.334;13.628;2022-07-29T06:44:00;7.03;;;3.08;;
29338;SDS011;16335;52.334;13.628;2022-07-29T06:46:26;4.85;;;2.55;;
29338;SDS011;16335;52.334;13.628;2022-07-29T06:48:52;11.23;;;2.58;;
29338;SDS011;16335;52.334;13.628;2022-07-29T06:51:18;3.65;;;2.53;;
29338;SDS011;16335;52.334;13.628;2022-07-29T06:53:44;6.22;;;2.92;;
29338;SDS011;16335;52.334;13.628;2022-07-29T06:56:10;7.05;;;2.88;;
29338;SDS011;16335;52.334;13.628;2022-07-29T06:58:37;8.68;;;3.08;;
29338;SDS011;16335;52.334;13.628;2022-07-29T07:01:04;5.90;;;2.70;;
29338;SDS011;16335;52.334;13.628;2022-07-29T07:03:31;6.78;;;2.58;;
29338;SDS011;16335;52.334;13.628;2022-07-29T07:05:57;8.90;;;2.97;;
29338;SDS011;16335;52.334;13.628;2022-07-29T07:08:23;7.75;;;2.65;;
29338;SDS011;16335;52.334;13.628;2022-07-29T07:10:52;6.40;;;2.70;;
29338;SDS011;16335;52.334;13.628;2022-07-29T07:13:20;4.30;;;2.70;;
29338;SDS011;16335;52.334;13.628;2022-07-29T07:15:46;4.45;;;2.40;;
29338;SDS011;16335;52.334;13.628;2022-07-29T07:18:13;4.38;;;2.78;;
29338;SDS011;16335;52.334;13.628;2022-07-29T07:20:39;3.47;;;2.00;;
29338;SDS011;16335;52.334;13.628;2022-07-29T07:23:05;3.58;;;2.25;;
29338;SDS011;16335;52.334;13.628;2022-07-29T07:25:31;5.50;;;2.60;;
29338;SDS011;16335;52.334;13.628;2022-07-29T07:27:57;4.15;;;2.40;;
29338;SDS011;16335;52.334;13.628;2022-07-29T07:30:22;7.70;;;3.10;;
29338;SDS011;16335;52.334;13.628;2022-07-29T07:32:48;4.88;;;2.20;;
29338;SDS011;16335;52.334;13.628;2022-07-29T07:35:14;3.65;;;2.22;;
29338;SDS011;16335;52.334;13.628;2022-07-29T07:37:40;4.72;;;2.67;;
29338;SDS011;16335;52.334;13.628;2022-07-29T07:40:06;7.95;;;2.50;;
29338;SDS011;16335;52.334;13.628;2022-07-29T07:42:33;4.05;;;2.42;;
29338;SDS011;16335;52.334;13.628;2022-07-29T07:44:59;4.38;;;2.47;;
29338;SDS011;16335;52.334;13.628;2022-07-29T07:47:24;3.65;;;2.60;;
29338;SDS011;16335;52.334;13.628;2022-07-29T07:49:51;4.05;;;2.30;;
29338;SDS011;16335;52.334;13.628;2022-07-29T07:52:17;5.40;;;2.78;;
29338;SDS011;16335;52.334;13.628;2022-07-29T07:54:46;7.85;;;2.55;;
29338;SDS011;16335;52.334;13.628;2022-07-29T07:57:13;4.65;;;2.08;;
29338;SDS011;16335;52.334;13.628;2022-07-29T07:59:40;5.53;;;2.50;;
29338;SDS011;16335;52.334;13.628;2022-07-29T08:02:06;5.75;;;2.10;;
29338;SDS011;16335;52.334;13.628;2022-07-29T08:04:32;5.22;;;2.42;;
29338;SDS011;16335;52.334;13.628;2022-07-29T08:06:58;5.75;;;2.35;;
29338;SDS011;16335;52.334;13.628;2022-07-29T08:09:25;5.03;;;2.35;;
29338;SDS011;16335;52.334;13.628;2022-07-29T08:11:51;5.25;;;2.83;;
29338;SDS011;16335;52.334;13.628;2022-07-29T08:14:17;7.60;;;2.33;;
29338;SDS011;16335;52.334;13.628;2022-07-29T08:16:43;8.32;;;2.83;;
29338;SDS011;16335;52.334;13.628;2022-07-29T08:19:09;6.70;;;2.45;;
29338;SDS011;16335;52.334;13.628;2022-07-29T08:21:35;3.90;;;2.30;;
29338;SDS011;16335;52.334;13.628;2022-07-29T08:24:01;5.32;;;2.20;;
29338;SDS011;16335;52.334;13.628;2022-07-29T08:26:45;4.97;;;1.95;;
29338;SDS011;16335;52.334;13.628;2022-07-29T08:29:11;5.28;;;2.47;;
29338;SDS011;16335;52.334;13.628;2022-07-29T08:31:37;4.15;;;2.47;;
29338;SDS011;16335;52.334;13.628;2022-07-29T08:34:03;3.50;;;2.45;;
29338;SDS011;16335;52.334;13.628;2022-07-29T08:36:30;8.15;;;2.45;;
29338;SDS011;16335;52.334;13.628;2022-07-29T08:38:56;5.30;;;2.10;;
29338;SDS011;16335;52.334;13.628;2022-07-29T08:41:23;6.93;;;2.53;;
29338;SDS011;16335;52.334;13.628;2022-07-29T08:43:49;7.68;;;2.03;;
29338;SDS011;16335;52.334;13.628;2022-07-29T08:46:16;4.75;;;1.70;;
29338;SDS011;16335;52.334;13.628;2022-07-29T08:48:43;5.03;;;1.90;;
29338;SDS011;16335;52.334;13.628;2022-07-29T08:51:08;4.93;;;2.13;;
29338;SDS011;16335;52.334;13.628;2022-07-29T08:53:40;2.33;;;1.77;;
29338;SDS011;16335;52.334;13.628;2022-07-29T08:56:07;3.88;;;2.10;;
29338;SDS011;16335;52.334;13.628;2022-07-29T08:58:37;3.72;;;2.10;;
29338;SDS011;16335;52.334;13.628;2022-07-29T09:01:03;5.78;;;2.00;;
29338;SDS011;16335;52.334;13.628;2022-07-29T09:03:30;4.85;;;1.70;;
29338;SDS011;16335;52.334;13.628;2022-07-29T09:05:57;4.55;;;2.20;;
29338;SDS011;16335;52.334;13.628;2022-07-29T09:08:23;3.97;;;2.00;;
29338;SDS011;16335;52.334;13.628;2022-07-29T09:10:50;2.80;;;2.08;;
29338;SDS011;16335;52.334;13.628;2022-07-29T09:13:16;4.05;;;2.13;;
29338;SDS011;16335;52.334;13.628;2022-07-29T09:15:43;6.20;;;2.28;;
29338;SDS011;16335;52.334;13.628;2022-07-29T09:18:09;2.65;;;2.03;;
29338;SDS011;16335;52.334;13.628;2022-07-29T09:20:35;4.15;;;1.80;;
29338;SDS011;16335;52.334;13.628;2022-07-29T09:23:19;6.45;;;2.63;;
29338;SDS011;16335;52.334;13.628;2022-07-29T09:25:47;6.00;;;2.30;;
29338;SDS011;16335;52.334;13.628;2022-07-29T09:28:14;4.55;;;2.55;;
29338;SDS011;16335;52.334;13.628;2022-07-29T09:30:50;3.20;;;2.10;;
29338;SDS011;16335;52.334;13.628;2022-07-29T09:33:17;4.78;;;2.20;;
29338;SDS011;16335;52.334;13.628;2022-07-29T09:35:43;7.07;;;2.00;;
29338;SDS011;16335;52.334;13.628;2022-07-29T09:38:13;4.80;;;2.63;;
29338;SDS011;16335;52.334;13.628;2022-07-29T09:40:39;4.57;;;2.15;;
29338;SDS011;16335;52.334;13.628;2022-07-29T09:43:14;4.13;;;2.00;;
29338;SDS011;16335;52.334;13.628;2022-07-29T09:45:40;4.47;;;2.27;;
29338;SDS011;16335;52.334;13.628;2022-07-29T09:48:13;5.10;;;2.10;;
29338;SDS011;16335;52.334;13.628;2022-07-29T09:50:47;3.45;;;1.98;;
29338;SDS011;16335;52.334;13.628;2022-07-29T09:56:05;5.07;;;2.10;;
29338;SDS011;16335;52.334;13.628;2022-07-29T09:58:33;3.17;;;1.90;;
29338;SDS011;16335;52.334;13.628;2022-07-29T10:00:59;2.72;;;1.98;;
29338;SDS011;16335;52.334;13.628;2022-07-29T10:03:25;3.85;;;2.05;;
29338;SDS011;16335;52.334;13.628;2022-07-29T10:06:07;5.68;;;1.85;;
29338;SDS011;16335;52.334;13.628;2022-07-29T10:08:35;3.33;;;2.20;;
29338;SDS011;16335;52.334;13.628;2022-07-29T10:11:14;4.18;;;2.30;;
29338;SDS011;16335;52.334;13.628;2022-07-29T10:13:43;5.03;;;2.03;;
29338;SDS011;16335;52.334;13.628;2022-07-29T10:16:11;4.32;;;2.28;;
29338;SDS011;16335;52.334;13.628;2022-07-29T10:18:38;5.50;;;2.00;;
29338;SDS011;16335;52.334;13.628;2022-07-29T10:21:04;2.53;;;1.90;;
29338;SDS011;16335;52.334;13.628;2022-07-29T10:23:30;3.10;;;2.25;;
29338;SDS011;16335;52.334;13.628;2022-07-29T10:25:56;6.35;;;2.30;;
29338;SDS011;16335;52.334;13.628;2022-07-29T10:28:22;3.67;;;2.05;;
29338;SDS011;16335;52.334;13.628;2022-07-29T10:30:51;5.85;;;2.35;;
29338;SDS011;16335;52.334;13.628;2022-07-29T10:33:30;3.58;;;2.15;;
29338;SDS011;16335;52.334;13.628;2022-07-29T10:36:17;3.10;;;2.22;;
29338;SDS011;16335;52.334;13.628;2022-07-29T10:39:04;4.57;;;2.30;;
29338;SDS011;16335;52.334;13.628;2022-07-29T10:41:56;6.82;;;2.95;;
29338;SDS011;16335;52.334;13.628;2022-07-29T10:44:28;4.07;;;2.50;;
29338;SDS011;16335;52.334;13.628;2022-07-29T10:46:54;6.63;;;3.03;;
29338;SDS011;16335;52.334;13.628;2022-07-29T10:49:22;5.32;;;2.92;;
29338;SDS011;16335;52.334;13.628;2022-07-29T10:52:01;5.65;;;2.72;;
29338;SDS011;16335;52.334;13.628;2022-07-29T11:05:08;2.80;;;2.60;;
29338;SDS011;16335;52.334;13.628;2022-07-29T11:07:39;3.97;;;2.78;;
29338;SDS011;16335;52.334;13.628;2022-07-29T11:10:25;6.07;;;3.15;;
29338;SDS011;16335;52.334;13.628;2022-07-29T11:12:51;5.10;;;2.92;;
29338;SDS011;16335;52.334;13.628;2022-07-29T11:15:18;5.75;;;2.80;;
29338;SDS011;16335;52.334;13.628;2022-07-29T11:20:44;4.55;;;2.72;;
29338;SDS011;16335;52.334;13.628;2022-07-29T11:26:20;4.57;;;2.88;;
29338;SDS011;16335;52.334;13.628;2022-07-29T11:31:39;4.20;;;2.70;;
29338;SDS011;16335;52.334;13.628;2022-07-29T11:34:20;8.75;;;3.28;;
29338;SDS011;16335;52.334;13.628;2022-07-29T11:39:47;7.32;;;2.60;;
29338;SDS011;16335;52.334;13.628;2022-07-29T11:44:53;4.35;;;2.60;;
29338;SDS011;16335;52.334;13.628;2022-07-29T11:47:26;6.22;;;2.83;;
29338;SDS011;16335;52.334;13.628;2022-07-29T11:49:55;5.50;;;2.80;;
29338;SDS011;16335;52.334;13.628;2022-07-29T11:52:22;3.75;;;3.05;;
29338;SDS011;16335;52.334;13.628;2022-07-29T11:54:50;6.07;;;2.80;;
29338;SDS011;16335;52.334;13.628;2022-07-29T11:57:17;4.10;;;2.50;;
29338;SDS011;16335;52.334;13.628;2022-07-29T11:59:44;3.25;;;2.70;;
29338;SDS011;16335;52.334;13.628;2022-07-29T12:02:12;5.65;;;2.95;;
29338;SDS011;16335;52.334;13.628;2022-07-29T12:04:54;3.97;;;2.70;;
